1NC0 weather

Delk's Airport
Asheboro, North Carolina, United States

Public forecast

Using degrees Fahrenheit for public forecast. Weather courtesy of forecast.io.

Closest aviation weather report (METAR) to Delk's Airport

Closest report is Asheboro Regional Airport, 4.7 nm (8.6 km) SSE. Retrieved 2020/08/05 13:15 UTC (0 seconds ago):

KHBI 051315Z AUTO 00000KT 10SM CLR 25/22 A3010 RMK AO2 T02510221

Closest aviation forecast (TAF) to Delk's Airport

Closest forecast is Piedmont Triad International Airport, 22.6 nm (41.8 km) N. Retrieved 2020/08/05 12:22 UTC (51 minutes ago):

TAF KGSO 051120Z 0512/0612 VRB03KT P6SM SCT080 SCT250 FM052100 17006KT P6SM VCTS SCT050CB FM060100 18005KT P6SM FEW070 SCT250